Buoy 21575

sailwx.info

Track history (hours):
 
Tides and Currents Weather Stations Pressure Air Temp Water Temp Dewpoint Dewpoint Depression Visibility Wind Speed Wind Dir Waves Ship Positions

Drifting buoy 21575

Last reported at 2018-Jan-23 03:20 UTC. Time now 2018-Jan-23 04:15 UTC.
Position N 22°19' W 158°37'.

Barometer 1015.6 mb
Water temperature 24.5 ° C

Date/timePositionNaut miles runAvg speedWind from/ knotsBaromVisibWave heightAir tempDewpointWater temp
2018-Jan-23 03:20N 22°19' W 158°37'0 0.0 1015.6 24.5
2018-Jan-23 02:20N 22°19' W 158°37'1 0.3 1015.2 24.5
2018-Jan-23 00:20N 22°19' W 158°37'3 0.7 1015.6 24.6
2018-Jan-22 20:20N 22°16' W 158°35'1 0.8 1018.7 24.6
2018-Jan-22 19:20N 22°16' W 158°35'1 0.6 1018.3 24.6
2018-Jan-22 18:20N 22°16' W 158°34'1 0.8 1017.8 24.6
2018-Jan-22 17:20N 22°15' W 158°34'1 1.1 1017.5 24.6
2018-Jan-22 16:20N 22°15' W 158°32'0 0.0 1017.0 24.6
2018-Jan-22 15:20N 22°15' W 158°32'1 0.8 1016.4 24.6
2018-Jan-22 14:20N 22°14' W 158°32'4 3.8 1015.9 24.6
2018-Jan-22 13:20N 22°11' W 158°31'1 0.1 1016.4 24.6
2018-Jan-22 07:20N 22°10' W 158°31'2 1.1 1017.9 24.7
2018-Jan-22 05:20N 22°10' W 158°28'0 0.0 1017.1 24.7
2018-Jan-22 04:20N 22°10' W 158°28'1 0.8 1016.7 24.8
2018-Jan-22 03:20N 22°10' W 158°28'0 0.0 1016.1 24.8
2018-Jan-22 02:20N 22°10' W 158°28'1 1.3 1015.3 24.8
2018-Jan-22 01:20N 22°09' W 158°26'0 0.0 1015.2 24.8
2018-Jan-22 00:20N 22°09' W 158°26'3 0.7 1015.5 24.8
2018-Jan-21 20:20N 22°07' W 158°25'2 0.9 1018.4 24.8
2018-Jan-21 18:20N 22°06' W 158°23'0 0.0 1017.6 24.7
2018-Jan-21 17:20N 22°06' W 158°23'1 1.1 1017.1 24.7
2018-Jan-21 16:20N 22°06' W 158°22'1 0.6 1016.4 24.7
2018-Jan-21 15:20N 22°07' W 158°22'1 0.3 1015.9 24.6
2018-Jan-21 13:20N 22°06' W 158°22'6 0.9 1015.8 24.6
2018-Jan-21 07:20N 22°01' W 158°20'0 0.0 1017.9 24.4
2018-Jan-21 06:20N 22°01' W 158°20'2 2.3 1017.6 24.4
2018-Jan-21 05:20N 22°00' W 158°18'1 0.6 1017.1 24.4
2018-Jan-21 04:20N 22°00' W 158°17'1 1.3 1016.9 24.4
2018-Jan-21 03:20N 22°01' W 158°16'1 1.1 1016.5 24.4
2018-Jan-21 02:20N 22°01' W 158°15'0 0.0 1016.1 24.4
2018-Jan-21 01:20N 22°01' W 158°15'2 0.3 1016.0 24.4
2018-Jan-20 20:20N 21°59' W 158°14'2 1.8 1018.9 24.2
2018-Jan-20 19:20N 21°59' W 158°12'1 0.6 1018.4 24.2
2018-Jan-20 18:20N 21°59' W 158°11'2 1.2 1018.4 24.2
2018-Jan-20 16:20N 21°58' W 158°09'2 1.7 1017.8 24.3
2018-Jan-20 15:20N 21°58' W 158°07'0 0.0 1017.4 24.3
2018-Jan-20 14:20N 21°58' W 158°07'0 0.0 1017.3 24.3
2018-Jan-20 13:20N 21°58' W 158°07'3 0.5 1017.6 24.3
2018-Jan-20 08:20N 21°57' W 158°05'1 1.3 1019.7 24.3
2018-Jan-20 07:20N 21°56' W 158°04'1 0.6 1019.3 24.3
2018-Jan-20 06:20N 21°56' W 158°03'1 1.1 1019.3 24.3
2018-Jan-20 05:20N 21°56' W 158°02'1 0.6 1019.1 24.3
2018-Jan-20 04:20N 21°56' W 158°01'2 2.1 1018.7 24.3
2018-Jan-20 03:20N 21°55' W 157°59'0 0.0 1018.4 24.4
2018-Jan-20 02:20N 21°55' W 157°59'0 0.0 1018.2 24.4
2018-Jan-20 01:20N 21°55' W 157°59'4 1.1 1018.1 24.4
2018-Jan-19 21:20N 21°53' W 157°55'2 2.1 1019.8 24.3
2018-Jan-19 20:20N 21°52' W 157°53'0 0.0 1020.4 24.3
2018-Jan-19 19:20N 21°52' W 157°53'2 1.2 1020.8 24.3
2018-Jan-19 17:20N 21°53' W 157°51'0 0.0 1020.1 24.2
2018-Jan-19 16:20N 21°53' W 157°51'1 0.6 1020.1 24.2
2018-Jan-19 15:20N 21°53' W 157°50'5 4.6 1019.8 24.1
2018-Jan-19 14:20N 21°50' W 157°46'0 0.0 1019.8 24.1
2018-Jan-19 13:20N 21°50' W 157°46'1 0.3 1020.1 24.1
2018-Jan-19 08:20N 21°50' W 157°45'0 0.0 1021.6 24.1
2018-Jan-19 07:20N 21°50' W 157°45'1 1.1 1021.5 24.1
2018-Jan-19 06:20N 21°50' W 157°44'1 0.8 1020.8 24.1
2018-Jan-19 05:20N 21°49' W 157°43'1 1.1 1020.5 24.1
2018-Jan-19 04:20N 21°49' W 157°42'7 2.4 1020.0 24.1
2018-Jan-19 01:20N 21°47' W 157°35'0 0.0 1019.4 24.1
2018-Jan-18 20:20N 21°47' W 157°35'0 0.0 1022.9 24.1
2018-Jan-18 19:20N 21°47' W 157°35'2 1.6 1022.7 24.1
2018-Jan-18 18:20N 21°46' W 157°34'0 0.0 1022.1 24.1
2018-Jan-18 17:20N 21°46' W 157°34'2 1.6 1021.6 24.1
2018-Jan-18 16:20N 21°44' W 157°32'0 0.0 1021.2 24.1
2018-Jan-18 15:20N 21°44' W 157°32'3 3.3 1020.9 24.1
2018-Jan-18 14:20N 21°42' W 157°30'0 0.0 1020.9 24.1
2018-Jan-18 13:20N 21°42' W 157°30'5 5.2 1021.1 24.1
2018-Jan-18 12:20N 21°41' W 157°25'1 0.1 1021.5 24.1
2018-Jan-18 07:20N 21°40' W 157°25'0 0.0 1022.5 24.0
2018-Jan-18 06:20N 21°40' W 157°25'1 1.1 1022.2 24.0
2018-Jan-18 05:20N 21°40' W 157°23'2 1.8 1021.8 24.0
2018-Jan-18 04:20N 21°40' W 157°22'0 0.0 1021.2 24.0
2018-Jan-18 03:20N 21°40' W 157°22'2 0.9 1021.0 24.1
2018-Jan-18 01:20N 21°39' W 157°20'2 1.8 1020.6 24.1
2018-Jan-18 00:20N 21°38' W 157°18'0 0.0 1020.8 24.1
2018-Jan-17 23:20N 21°38' W 157°18'4 1.4 1021.4 24.1
2018-Jan-17 20:20N 21°40' W 157°14'1 1.1 1023.2 24.1
2018-Jan-17 19:20N 21°40' W 157°13'1 0.8 1022.8 24.1
2018-Jan-17 18:20N 21°40' W 157°12'1 0.6 1022.4 24.1
2018-Jan-17 17:20N 21°40' W 157°11'1 0.8 1021.5 24.1
2018-Jan-17 16:20N 21°41' W 157°11'2 1.8 1021.2 24.2
2018-Jan-17 15:20N 21°41' W 157°09'0 0.0 1020.5 24.2
2018-Jan-17 14:20N 21°41' W 157°09'5 2.7 1020.2 24.2
2018-Jan-17 12:20N 21°44' W 157°04'1 0.3 1020.8 24.2
2018-Jan-17 07:20N 21°45' W 157°03'0 0.0 1022.3 24.2
2018-Jan-17 06:20N 21°45' W 157°03'2 1.6 1021.8 24.2
2018-Jan-17 05:20N 21°46' W 157°02'1 0.8 1021.2 24.2
2018-Jan-17 04:20N 21°47' W 157°01'2 2.1 1020.7 24.2
2018-Jan-17 03:20N 21°49' W 157°00'0 0.0 1020.2 24.3
2018-Jan-17 02:20N 21°49' W 157°00'2 1.9 1019.6 24.3
2018-Jan-17 01:20N 21°50' W 156°59'0 0.0 1019.4 24.3
2018-Jan-17 00:20N 21°50' W 156°59'10 0.6 1019.0 24.3
2018-Jan-16 06:20N 22°01' W 156°58'1 0.6 1019.9 24.4
2018-Jan-16 05:20N 22°01' W 156°58'1 0.6 1019.3 24.5
2018-Jan-16 04:20N 22°01' W 156°58'2 1.6 1018.8 24.5
2018-Jan-16 03:20N 22°02' W 156°56'0 0.0 1018.1 24.6
2018-Jan-16 02:20N 22°02' W 156°56'1 0.8 1017.6 24.6
2018-Jan-16 01:20N 22°03' W 156°56'0 0.0 1017.3 24.7
2018-Jan-16 00:20N 22°03' W 156°56'4 1.0 1017.2 24.7
2018-Jan-15 20:20N 22°07' W 156°54'4 0.8 1020.4 24.5
2018-Jan-15 15:20N 22°10' W 156°53'2 1.9 1018.8 24.4
2018-Jan-15 14:20N 22°12' W 156°52'6 6.2 1018.8 24.4
2018-Jan-15 13:20N 22°18' W 156°50'6 6.2 1018.9 24.5
2018-Jan-15 12:20N 22°12' W 156°52'6 1.6 1019.2 24.5
2018-Jan-15 08:20N 22°18' W 156°50'4 2.2 1020.0 24.6
2018-Jan-15 06:20N 22°22' W 156°49'1 0.6 1019.2 24.6
2018-Jan-15 05:20N 22°23' W 156°49'1 0.8 1018.8 24.4
2018-Jan-15 04:20N 22°23' W 156°49'2 1.2 1018.0 24.5
2018-Jan-15 02:20N 22°26' W 156°48'2 0.9 1016.8 24.8
2018-Jan-15 00:20N 22°28' W 156°47'4 1.4 1016.4 25.2
2018-Jan-14 21:20N 22°32' W 156°48'2 2.1 1019.0 24.3
2018-Jan-14 20:20N 22°34' W 156°49'0 0.0 1019.3 24.2
2018-Jan-14 19:20N 22°34' W 156°49'1 0.8 1019.3 24.1
2018-Jan-14 18:20N 22°34' W 156°50'1 0.8 1018.6 24.1
2018-Jan-14 17:20N 22°35' W 156°50'1 1.3 1017.9 24.1
2018-Jan-14 16:20N 22°35' W 156°52'1 0.8 1017.4 24.1
2018-Jan-14 15:20N 22°36' W 156°52'1 1.3 1017.1 24.2
2018-Jan-14 14:20N 22°37' W 156°53'3 2.6 1016.8 24.3
2018-Jan-14 13:20N 22°39' W 156°55'0 0.0 1016.8 24.3
2018-Jan-14 12:20N 22°39' W 156°55'0 0.0 1016.7 24.3
2018-Jan-14 08:20N 22°39' W 156°55'1 0.8 1017.8 24.4
2018-Jan-14 07:20N 22°40' W 156°55'1 0.6 1017.7 24.4
2018-Jan-14 06:20N 22°40' W 156°56'1 0.6 1017.3 24.5
2018-Jan-14 05:20N 22°40' W 156°56'1 0.6 1016.3 24.5
2018-Jan-14 04:20N 22°40' W 156°56'1 0.8 1015.5 24.6
2018-Jan-14 03:20N 22°41' W 156°57'0 0.0 1015.0 24.7
2018-Jan-14 02:20N 22°41' W 156°57'0 0.0 1015.2 24.8
2018-Jan-14 00:20N 22°41' W 156°57'   1014.8 24.8
Track history (hours):
 
Tides and Currents Weather Stations Pressure Air Temp Water Temp Dewpoint Dewpoint Depression Visibility Wind Speed Wind Dir Waves Ship Positions

Drifting buoy 21575

Last reported at 2018-Jan-23 03:20 UTC. Time now 2018-Jan-23 04:15 UTC.
Position N 22°19' W 158°37'.

Barometer 1015.6 mb
Water temperature 24.5 ° C

Date/timePositionNaut miles runAvg speedWind from/ knotsBaromVisibWave heightAir tempDewpointWater temp
2018-Jan-23 03:20N 22°19' W 158°37'0 0.0 1015.6 24.5
2018-Jan-23 02:20N 22°19' W 158°37'1 0.3 1015.2 24.5
2018-Jan-23 00:20N 22°19' W 158°37'3 0.7 1015.6 24.6
2018-Jan-22 20:20N 22°16' W 158°35'1 0.8 1018.7 24.6
2018-Jan-22 19:20N 22°16' W 158°35'1 0.6 1018.3 24.6
2018-Jan-22 18:20N 22°16' W 158°34'1 0.8 1017.8 24.6
2018-Jan-22 17:20N 22°15' W 158°34'1 1.1 1017.5 24.6
2018-Jan-22 16:20N 22°15' W 158°32'0 0.0 1017.0 24.6
2018-Jan-22 15:20N 22°15' W 158°32'1 0.8 1016.4 24.6
2018-Jan-22 14:20N 22°14' W 158°32'4 3.8 1015.9 24.6
2018-Jan-22 13:20N 22°11' W 158°31'1 0.1 1016.4 24.6
2018-Jan-22 07:20N 22°10' W 158°31'2 1.1 1017.9 24.7
2018-Jan-22 05:20N 22°10' W 158°28'0 0.0 1017.1 24.7
2018-Jan-22 04:20N 22°10' W 158°28'1 0.8 1016.7 24.8
2018-Jan-22 03:20N 22°10' W 158°28'0 0.0 1016.1 24.8
2018-Jan-22 02:20N 22°10' W 158°28'1 1.3 1015.3 24.8
2018-Jan-22 01:20N 22°09' W 158°26'0 0.0 1015.2 24.8
2018-Jan-22 00:20N 22°09' W 158°26'3 0.7 1015.5 24.8
2018-Jan-21 20:20N 22°07' W 158°25'2 0.9 1018.4 24.8
2018-Jan-21 18:20N 22°06' W 158°23'0 0.0 1017.6 24.7
2018-Jan-21 17:20N 22°06' W 158°23'1 1.1 1017.1 24.7
2018-Jan-21 16:20N 22°06' W 158°22'1 0.6 1016.4 24.7
2018-Jan-21 15:20N 22°07' W 158°22'1 0.3 1015.9 24.6
2018-Jan-21 13:20N 22°06' W 158°22'6 0.9 1015.8 24.6
2018-Jan-21 07:20N 22°01' W 158°20'0 0.0 1017.9 24.4
2018-Jan-21 06:20N 22°01' W 158°20'2 2.3 1017.6 24.4
2018-Jan-21 05:20N 22°00' W 158°18'1 0.6 1017.1 24.4
2018-Jan-21 04:20N 22°00' W 158°17'1 1.3 1016.9 24.4
2018-Jan-21 03:20N 22°01' W 158°16'1 1.1 1016.5 24.4
2018-Jan-21 02:20N 22°01' W 158°15'0 0.0 1016.1 24.4
2018-Jan-21 01:20N 22°01' W 158°15'2 0.3 1016.0 24.4
2018-Jan-20 20:20N 21°59' W 158°14'2 1.8 1018.9 24.2
2018-Jan-20 19:20N 21°59' W 158°12'1 0.6 1018.4 24.2
2018-Jan-20 18:20N 21°59' W 158°11'2 1.2 1018.4 24.2
2018-Jan-20 16:20N 21°58' W 158°09'2 1.7 1017.8 24.3
2018-Jan-20 15:20N 21°58' W 158°07'0 0.0 1017.4 24.3
2018-Jan-20 14:20N 21°58' W 158°07'0 0.0 1017.3 24.3
2018-Jan-20 13:20N 21°58' W 158°07'3 0.5 1017.6 24.3
2018-Jan-20 08:20N 21°57' W 158°05'1 1.3 1019.7 24.3
2018-Jan-20 07:20N 21°56' W 158°04'1 0.6 1019.3 24.3
2018-Jan-20 06:20N 21°56' W 158°03'1 1.1 1019.3 24.3
2018-Jan-20 05:20N 21°56' W 158°02'1 0.6 1019.1 24.3
2018-Jan-20 04:20N 21°56' W 158°01'2 2.1 1018.7 24.3
2018-Jan-20 03:20N 21°55' W 157°59'0 0.0 1018.4 24.4
2018-Jan-20 02:20N 21°55' W 157°59'0 0.0 1018.2 24.4
2018-Jan-20 01:20N 21°55' W 157°59'4 1.1 1018.1 24.4
2018-Jan-19 21:20N 21°53' W 157°55'2 2.1 1019.8 24.3
2018-Jan-19 20:20N 21°52' W 157°53'0 0.0 1020.4 24.3
2018-Jan-19 19:20N 21°52' W 157°53'2 1.2 1020.8 24.3
2018-Jan-19 17:20N 21°53' W 157°51'0 0.0 1020.1 24.2
2018-Jan-19 16:20N 21°53' W 157°51'1 0.6 1020.1 24.2
2018-Jan-19 15:20N 21°53' W 157°50'5 4.6 1019.8 24.1
2018-Jan-19 14:20N 21°50' W 157°46'0 0.0 1019.8 24.1
2018-Jan-19 13:20N 21°50' W 157°46'1 0.3 1020.1 24.1
2018-Jan-19 08:20N 21°50' W 157°45'0 0.0 1021.6 24.1
2018-Jan-19 07:20N 21°50' W 157°45'1 1.1 1021.5 24.1
2018-Jan-19 06:20N 21°50' W 157°44'1 0.8 1020.8 24.1
2018-Jan-19 05:20N 21°49' W 157°43'1 1.1 1020.5 24.1
2018-Jan-19 04:20N 21°49' W 157°42'7 2.4 1020.0 24.1
2018-Jan-19 01:20N 21°47' W 157°35'0 0.0 1019.4 24.1
2018-Jan-18 20:20N 21°47' W 157°35'0 0.0 1022.9 24.1
2018-Jan-18 19:20N 21°47' W 157°35'2 1.6 1022.7 24.1
2018-Jan-18 18:20N 21°46' W 157°34'0 0.0 1022.1 24.1
2018-Jan-18 17:20N 21°46' W 157°34'2 1.6 1021.6 24.1
2018-Jan-18 16:20N 21°44' W 157°32'0 0.0 1021.2 24.1
2018-Jan-18 15:20N 21°44' W 157°32'3 3.3 1020.9 24.1
2018-Jan-18 14:20N 21°42' W 157°30'0 0.0 1020.9 24.1
2018-Jan-18 13:20N 21°42' W 157°30'5 5.2 1021.1 24.1
2018-Jan-18 12:20N 21°41' W 157°25'1 0.1 1021.5 24.1
2018-Jan-18 07:20N 21°40' W 157°25'0 0.0 1022.5 24.0
2018-Jan-18 06:20N 21°40' W 157°25'1 1.1 1022.2 24.0
2018-Jan-18 05:20N 21°40' W 157°23'2 1.8 1021.8 24.0
2018-Jan-18 04:20N 21°40' W 157°22'0 0.0 1021.2 24.0
2018-Jan-18 03:20N 21°40' W 157°22'2 0.9 1021.0 24.1
2018-Jan-18 01:20N 21°39' W 157°20'2 1.8 1020.6 24.1
2018-Jan-18 00:20N 21°38' W 157°18'0 0.0 1020.8 24.1
2018-Jan-17 23:20N 21°38' W 157°18'4 1.4 1021.4 24.1
2018-Jan-17 20:20N 21°40' W 157°14'1 1.1 1023.2 24.1
2018-Jan-17 19:20N 21°40' W 157°13'1 0.8 1022.8 24.1
2018-Jan-17 18:20N 21°40' W 157°12'1 0.6 1022.4 24.1
2018-Jan-17 17:20N 21°40' W 157°11'1 0.8 1021.5 24.1
2018-Jan-17 16:20N 21°41' W 157°11'2 1.8 1021.2 24.2
2018-Jan-17 15:20N 21°41' W 157°09'0 0.0 1020.5 24.2
2018-Jan-17 14:20N 21°41' W 157°09'5 2.7 1020.2 24.2
2018-Jan-17 12:20N 21°44' W 157°04'1 0.3 1020.8 24.2
2018-Jan-17 07:20N 21°45' W 157°03'0 0.0 1022.3 24.2
2018-Jan-17 06:20N 21°45' W 157°03'2 1.6 1021.8 24.2
2018-Jan-17 05:20N 21°46' W 157°02'1 0.8 1021.2 24.2
2018-Jan-17 04:20N 21°47' W 157°01'2 2.1 1020.7 24.2
2018-Jan-17 03:20N 21°49' W 157°00'0 0.0 1020.2 24.3
2018-Jan-17 02:20N 21°49' W 157°00'2 1.9 1019.6 24.3
2018-Jan-17 01:20N 21°50' W 156°59'0 0.0 1019.4 24.3
2018-Jan-17 00:20N 21°50' W 156°59'10 0.6 1019.0 24.3
2018-Jan-16 06:20N 22°01' W 156°58'1 0.6 1019.9 24.4
2018-Jan-16 05:20N 22°01' W 156°58'1 0.6 1019.3 24.5
2018-Jan-16 04:20N 22°01' W 156°58'2 1.6 1018.8 24.5
2018-Jan-16 03:20N 22°02' W 156°56'0 0.0 1018.1 24.6
2018-Jan-16 02:20N 22°02' W 156°56'1 0.8 1017.6 24.6
2018-Jan-16 01:20N 22°03' W 156°56'0 0.0 1017.3 24.7
2018-Jan-16 00:20N 22°03' W 156°56'4 1.0 1017.2 24.7
2018-Jan-15 20:20N 22°07' W 156°54'4 0.8 1020.4 24.5
2018-Jan-15 15:20N 22°10' W 156°53'2 1.9 1018.8 24.4
2018-Jan-15 14:20N 22°12' W 156°52'6 6.2 1018.8 24.4
2018-Jan-15 13:20N 22°18' W 156°50'6 6.2 1018.9 24.5
2018-Jan-15 12:20N 22°12' W 156°52'6 1.6 1019.2 24.5
2018-Jan-15 08:20N 22°18' W 156°50'4 2.2 1020.0 24.6
2018-Jan-15 06:20N 22°22' W 156°49'1 0.6 1019.2 24.6
2018-Jan-15 05:20N 22°23' W 156°49'1 0.8 1018.8 24.4
2018-Jan-15 04:20N 22°23' W 156°49'2 1.2 1018.0 24.5
2018-Jan-15 02:20N 22°26' W 156°48'2 0.9 1016.8 24.8
2018-Jan-15 00:20N 22°28' W 156°47'4 1.4 1016.4 25.2
2018-Jan-14 21:20N 22°32' W 156°48'2 2.1 1019.0 24.3
2018-Jan-14 20:20N 22°34' W 156°49'0 0.0 1019.3 24.2
2018-Jan-14 19:20N 22°34' W 156°49'1 0.8 1019.3 24.1
2018-Jan-14 18:20N 22°34' W 156°50'1 0.8 1018.6 24.1
2018-Jan-14 17:20N 22°35' W 156°50'1 1.3 1017.9 24.1
2018-Jan-14 16:20N 22°35' W 156°52'1 0.8 1017.4 24.1
2018-Jan-14 15:20N 22°36' W 156°52'1 1.3 1017.1 24.2
2018-Jan-14 14:20N 22°37' W 156°53'3 2.6 1016.8 24.3
2018-Jan-14 13:20N 22°39' W 156°55'0 0.0 1016.8 24.3
2018-Jan-14 12:20N 22°39' W 156°55'0 0.0 1016.7 24.3
2018-Jan-14 08:20N 22°39' W 156°55'1 0.8 1017.8 24.4
2018-Jan-14 07:20N 22°40' W 156°55'1 0.6 1017.7 24.4
2018-Jan-14 06:20N 22°40' W 156°56'1 0.6 1017.3 24.5
2018-Jan-14 05:20N 22°40' W 156°56'1 0.6 1016.3 24.5
2018-Jan-14 04:20N 22°40' W 156°56'1 0.8 1015.5 24.6
2018-Jan-14 03:20N 22°41' W 156°57'0 0.0 1015.0 24.7
2018-Jan-14 02:20N 22°41' W 156°57'0 0.0 1015.2 24.8
2018-Jan-14 00:20N 22°41' W 156°57'   1014.8 24.8

Dump ship's entire track history